Time;durP1;ratioP1;P1;durP2;ratioP2;P2;SDS_P1;SDS_P2;PMS_P1;PMS_P2;Temp;Humidity;BMP_temperature;BMP_pressure;BME280_temperature;BME280_humidity;BME280_pressure;Samples;Min_cycle;Max_cycle;Signal;HPM_P1;HPM_P2
2022/03/02 00:01:15;;;;;;;41.15;20.67;;;;;;;0.16;100.00;102538.34;5029706;28;20490;-76
2022/03/02 00:03:41;;;;;;;48.50;24.00;;;;;;;0.15;100.00;102531.38;5013242;28;20043;-75
2022/03/02 00:06:07;;;;;;;46.25;21.90;;;;;;;0.07;100.00;102529.03;5013112;28;20102;-74
2022/03/02 00:08:32;;;;;;;49.38;24.58;;;;;;;0.13;100.00;102528.81;5029380;28;20091;-77
2022/03/02 00:10:57;;;;;;;48.13;23.57;;;;;;;0.18;100.00;102531.28;5013258;28;20558;-76
2022/03/02 00:13:23;;;;;;;50.43;23.13;;;;;;;0.08;100.00;102520.22;5013290;28;20272;-75
2022/03/02 00:15:49;;;;;;;45.83;24.07;;;;;;;0.14;100.00;102534.91;5013260;28;20292;-77
2022/03/02 00:18:14;;;;;;;45.83;22.15;;;;;;;0.07;100.00;102534.28;5013381;28;20025;-76
2022/03/02 00:20:40;;;;;;;47.22;21.60;;;;;;;0.05;100.00;102522.97;5030690;28;20084;-77
2022/03/02 00:23:05;;;;;;;42.80;21.65;;;;;;;-0.05;100.00;102514.53;5013241;28;20022;-77
2022/03/02 00:25:31;;;;;;;46.33;22.52;;;;;;;-0.12;100.00;102515.63;5030768;28;20099;-75
2022/03/02 00:27:56;;;;;;;51.53;22.38;;;;;;;-0.23;100.00;102504.63;5013173;28;20558;-77
2022/03/02 00:30:23;;;;;;;48.83;23.03;;;;;;;-0.29;100.00;102502.19;5013099;28;20112;-77
2022/03/02 00:32:48;;;;;;;47.08;23.15;;;;;;;-0.34;100.00;102502.34;5029446;28;20320;-77
2022/03/02 00:35:14;;;;;;;51.63;26.17;;;;;;;-0.41;100.00;102505.22;5045876;28;20033;-77
2022/03/02 00:37:39;;;;;;;49.50;22.37;;;;;;;-0.46;100.00;102498.34;5030673;28;20383;-77
2022/03/02 00:40:05;;;;;;;46.17;21.43;;;;;;;-0.45;100.00;102500.03;5030278;28;20288;-76
2022/03/02 00:42:30;;;;;;;51.90;24.48;;;;;;;-0.47;100.00;102507.13;5013113;28;20026;-76
2022/03/02 00:44:56;;;;;;;46.27;21.03;;;;;;;-0.57;100.00;102497.81;5012993;28;20479;-77
2022/03/02 00:47:22;;;;;;;45.70;21.85;;;;;;;-0.62;100.00;102504.97;5029537;28;20445;-76
2022/03/02 00:49:47;;;;;;;46.30;21.38;;;;;;;-0.64;100.00;102515.50;5012584;28;20495;-77
2022/03/02 00:52:14;;;;;;;47.92;21.63;;;;;;;-0.72;100.00;102514.03;5030646;28;20049;-77
2022/03/02 00:54:40;;;;;;;55.88;25.60;;;;;;;-0.70;100.00;102520.09;5029103;28;20398;-77
2022/03/02 00:57:05;;;;;;;54.28;23.40;;;;;;;-0.77;100.00;102513.28;5046072;28;20030;-77
2022/03/02 00:59:31;;;;;;;47.53;22.90;;;;;;;-0.77;100.00;102524.66;5012294;28;20033;-77
2022/03/02 01:01:56;;;;;;;46.95;23.02;;;;;;;-0.84;100.00;102512.66;5045917;28;20565;-77
2022/03/02 01:04:22;;;;;;;50.40;22.55;;;;;;;-0.86;100.00;102509.22;5029040;28;20429;-77
2022/03/02 01:06:47;;;;;;;52.58;23.60;;;;;;;-0.85;100.00;102511.75;5029544;28;20033;-77
2022/03/02 01:09:13;;;;;;;51.42;22.85;;;;;;;-0.94;100.00;102501.53;5046218;28;20033;-76
2022/03/02 01:11:40;;;;;;;49.17;25.77;;;;;;;-0.88;100.00;102509.25;5049738;28;20479;-76
2022/03/02 01:14:05;;;;;;;42.45;20.45;;;;;;;-0.91;100.00;102506.72;5049360;28;20041;-76
2022/03/02 01:16:32;;;;;;;50.75;24.40;;;;;;;-0.89;100.00;102512.78;5049446;28;20121;-77
2022/03/02 01:18:58;;;;;;;51.22;22.85;;;;;;;-0.98;100.00;102504.34;5015650;28;20509;-76
2022/03/02 01:21:23;;;;;;;50.17;23.33;;;;;;;-0.95;100.00;102510.31;5048810;28;20033;-77
2022/03/02 01:23:49;;;;;;;55.03;23.80;;;;;;;-0.99;100.00;102503.44;5033768;28;20506;-75
2022/03/02 01:26:14;;;;;;;68.53;25.03;;;;;;;-1.02;100.00;102503.56;5016238;28;20510;-76
2022/03/02 01:28:40;;;;;;;54.28;24.70;;;;;;;-1.00;100.00;102508.75;5033438;28;20383;-76
2022/03/02 01:31:05;;;;;;;59.80;25.33;;;;;;;-1.02;100.00;102506.16;5016007;28;20120;-77
2022/03/02 01:33:31;;;;;;;52.42;24.52;;;;;;;-0.97;100.00;102509.50;5031530;28;20406;-77
2022/03/02 01:35:56;;;;;;;64.43;24.83;;;;;;;-0.89;100.00;102512.78;5032648;28;20059;-76
2022/03/02 01:38:22;;;;;;;48.08;22.77;;;;;;;-0.91;100.00;102506.72;5048868;28;20037;-77
2022/03/02 01:40:47;;;;;;;49.70;23.65;;;;;;;-0.94;100.00;102498.06;5032074;28;20029;-77
2022/03/02 01:43:13;;;;;;;50.78;22.83;;;;;;;-0.94;100.00;102501.53;5048954;28;20087;-77
2022/03/02 01:45:38;;;;;;;60.15;26.05;;;;;;;-1.04;100.00;102480.91;5015687;28;20506;-77
2022/03/02 01:48:04;;;;;;;61.67;27.52;;;;;;;-1.06;100.00;102486.19;5048789;28;20090;-75
2022/03/02 01:50:31;;;;;;;55.80;23.95;;;;;;;-1.03;100.00;102485.22;5033018;28;20037;-76
2022/03/02 01:52:56;;;;;;;54.13;23.10;;;;;;;-1.08;100.00;102491.50;5033435;28;20395;-77
2022/03/02 01:55:23;;;;;;;49.92;25.33;;;;;;;-1.16;100.00;102484.75;5048450;28;20055;-76
2022/03/02 01:57:48;;;;;;;;;;;;;;;-1.19;100.00;102487.47;5048980;28;20052;-76
2022/03/02 02:00:18;;;;;;;58.65;23.30;;;;;;;-1.17;100.00;102493.50;5033105;28;19909;-77
2022/03/02 02:02:44;;;;;;;57.75;24.92;;;;;;;-1.21;100.00;102486.66;5015301;28;20037;-76
2022/03/02 02:05:10;;;;;;;;;;;;;;;-1.19;100.00;102496.19;5015296;28;20036;-77
2022/03/02 02:07:35;;;;;;;61.42;25.08;;;;;;;-1.25;100.00;102479.75;5015797;28;19917;-77
2022/03/02 02:10:01;;;;;;;51.47;25.42;;;;;;;-1.22;100.00;102483.13;5033450;28;20029;-76
2022/03/02 02:12:27;;;;;;;50.60;24.90;;;;;;;-1.19;100.00;102482.22;5031763;28;20379;-76
2022/03/02 02:14:52;;;;;;;64.18;25.90;;;;;;;-1.10;100.00;102487.16;5031500;28;20112;-75
2022/03/02 02:17:18;;;;;;;51.67;25.20;;;;;;;-1.12;100.00;102482.00;5031557;28;20123;-76
2022/03/02 02:19:43;;;;;;;55.30;25.45;;;;;;;-1.10;100.00;102479.31;5014864;28;20021;-76
2022/03/02 02:22:08;;;;;;;61.20;25.27;;;;;;;-1.06;100.00;102497.53;5030431;28;20037;-76
2022/03/02 02:24:34;;;;;;;56.30;23.92;;;;;;;-1.13;100.00;102482.88;5030997;28;20067;-76
2022/03/02 02:27:00;;;;;;;53.72;24.40;;;;;;;-1.20;100.00;102470.00;5031302;28;20130;-77
2022/03/02 02:29:28;;;;;;;;;;;;;;;-1.16;100.00;102474.25;5014999;28;20032;-76
2022/03/02 02:31:53;;;;;;;56.08;24.15;;;;;;;-1.18;100.00;102473.44;5052775;28;20431;-76
2022/03/02 02:34:19;;;;;;;60.63;26.35;;;;;;;-1.16;100.00;102474.25;5034460;28;20029;-76
2022/03/02 02:36:46;;;;;;;58.17;25.40;;;;;;;-1.18;100.00;102466.44;5017761;28;20049;-78
2022/03/02 02:39:11;;;;;;;61.95;26.65;;;;;;;-1.16;100.00;102466.41;5033320;28;20025;-75
2022/03/02 02:41:36;;;;;;;66.63;28.40;;;;;;;-1.09;100.00;102476.66;5052117;28;20526;-75
2022/03/02 02:44:02;;;;;;;68.17;28.50;;;;;;;-1.09;100.00;102473.19;5050995;28;20036;-76
2022/03/02 02:46:27;;;;;;;62.90;30.27;;;;;;;-1.09;100.00;102474.03;5034002;28;20036;-75
2022/03/02 02:48:53;;;;;;;58.78;26.17;;;;;;;-1.16;100.00;102466.41;5051184;28;20547;-75
2022/03/02 02:51:18;;;;;;;61.35;25.02;;;;;;;-1.19;100.00;102463.88;5032718;28;20041;-76
2022/03/02 02:53:44;;;;;;;63.22;26.83;;;;;;;-1.27;100.00;102459.69;5032627;28;20024;-75
2022/03/02 02:56:10;;;;;;;57.22;25.85;;;;;;;-1.16;100.00;102456.75;5032950;28;20041;-75
2022/03/02 02:58:35;;;;;;;53.72;26.90;;;;;;;-1.13;100.00;102448.78;5050157;28;20045;-75
2022/03/02 03:01:02;;;;;;;69.85;28.15;;;;;;;-1.04;100.00;102455.53;5033849;28;20457;-76
2022/03/02 03:03:27;;;;;;;80.50;31.58;;;;;;;-1.04;100.00;102450.28;5050086;28;20048;-75
2022/03/02 03:05:53;;;;;;;82.20;31.23;;;;;;;-1.02;100.00;102448.50;5033609;28;20020;-76
2022/03/02 03:08:19;;;;;;;77.32;30.40;;;;;;;-1.07;100.00;102442.53;5049984;28;20036;-75
2022/03/02 03:10:45;;;;;;;75.85;32.75;;;;;;;-1.04;100.00;102450.28;5048879;28;20454;-75
2022/03/02 03:13:12;;;;;;;75.03;30.20;;;;;;;-1.08;100.00;102448.66;5051752;28;20386;-76
2022/03/02 03:15:37;;;;;;;;;;;;;;;-1.10;100.00;102453.97;5051283;28;20040;-75
2022/03/02 03:18:04;;;;;;;74.82;29.90;;;;;;;-1.17;100.00;102447.19;5033081;28;19913;-76
2022/03/02 03:20:31;;;;;;;78.63;32.58;;;;;;;-1.22;100.00;102446.44;5033145;28;20398;-76
2022/03/02 03:22:56;;;;;;;;;;;;;;;-1.30;100.00;102451.91;5049881;28;20107;-77
2022/03/02 03:25:23;;;;;;;67.88;28.98;;;;;;;-1.42;100.00;102440.94;5049004;28;20016;-76
2022/03/02 03:27:49;;;;;;;71.80;28.25;;;;;;;-1.54;100.00;102427.28;5049809;28;20044;-76
2022/03/02 03:30:17;;;;;;;68.15;29.35;;;;;;;-1.52;100.00;102435.97;5032796;28;20064;-76
2022/03/02 03:32:43;;;;;;;69.25;29.80;;;;;;;-1.58;100.00;102424.78;5033090;28;20087;-77
2022/03/02 03:35:10;;;;;;;71.78;30.67;;;;;;;-1.53;100.00;102420.28;5032076;28;20040;-76
2022/03/02 03:37:36;;;;;;;80.88;32.22;;;;;;;-1.55;100.00;102430.78;5049568;28;20098;-76
2022/03/02 03:40:03;;;;;;;81.03;32.80;;;;;;;-1.64;100.00;102417.97;5049703;28;20036;-77
2022/03/02 03:42:28;;;;;;;73.45;28.50;;;;;;;-1.67;100.00;102418.03;5033070;28;20394;-76
2022/03/02 03:44:54;;;;;;;65.10;27.13;;;;;;;-1.81;100.00;102407.94;5050028;28;20029;-76
2022/03/02 03:47:19;;;;;;;59.80;25.83;;;;;;;-1.77;100.00;102421.84;5032613;28;20282;-76
2022/03/02 03:49:45;;;;;;;71.47;29.95;;;;;;;-1.82;100.00;102415.88;5032465;28;20275;-76
2022/03/02 03:52:10;;;;;;;69.70;30.27;;;;;;;-1.82;100.00;102418.50;5049683;28;20029;-76
2022/03/02 03:54:36;;;;;;;76.90;32.90;;;;;;;-1.86;100.00;102414.22;5032880;28;20052;-75
2022/03/02 03:57:02;;;;;;;78.70;31.33;;;;;;;-1.83;100.00;102417.59;5032916;28;20033;-75
2022/03/02 03:59:27;;;;;;;80.70;32.95;;;;;;;-1.87;100.00;102407.25;5050712;28;20508;-77
2022/03/02 04:01:53;;;;;;;79.68;33.28;;;;;;;-1.88;100.00;102411.63;5049950;28;20048;-75
2022/03/02 04:04:19;;;;;;;79.88;32.25;;;;;;;-1.91;100.00;102403.88;5033483;28;20532;-76
2022/03/02 04:06:44;;;;;;;80.45;32.15;;;;;;;-1.88;100.00;102403.78;5033126;28;20075;-75
2022/03/02 04:09:10;;;;;;;82.57;32.33;;;;;;;-1.84;100.00;102413.28;5033178;28;20071;-77
2022/03/02 04:11:35;;;;;;;77.03;30.83;;;;;;;-1.77;100.00;102424.44;5033753;28;20087;-76
2022/03/02 04:14:01;;;;;;;79.50;29.90;;;;;;;-1.84;100.00;102401.97;5033287;28;20279;-75
2022/03/02 04:16:26;;;;;;;84.72;34.65;;;;;;;-1.72;100.00;102412.94;5033313;28;20041;-75
2022/03/02 04:18:52;;;;;;;82.57;34.55;;;;;;;-1.75;100.00;102410.41;5049597;28;20036;-76
2022/03/02 04:21:17;;;;;;;78.68;31.70;;;;;;;-1.85;100.00;102405.47;5033551;28;20033;-76
2022/03/02 04:23:43;;;;;;;79.78;32.13;;;;;;;-1.79;100.00;102419.25;5050973;28;20025;-76
2022/03/02 04:26:08;;;;;;;88.00;32.65;;;;;;;-1.83;100.00;102411.50;5050426;28;20518;-75
2022/03/02 04:28:33;;;;;;;80.88;33.83;;;;;;;-1.85;100.00;102400.22;5049646;28;20438;-77
2022/03/02 04:30:59;;;;;;;82.82;31.20;;;;;;;-1.83;100.00;102401.88;5033419;28;20048;-76
2022/03/02 04:33:24;;;;;;;71.78;30.75;;;;;;;-1.80;100.00;102391.34;5051002;28;20282;-75
2022/03/02 04:35:50;;;;;;;95.65;33.55;;;;;;;-1.83;100.00;102377.47;5032778;28;20025;-76
2022/03/02 04:38:16;;;;;;;79.45;32.92;;;;;;;-1.64;100.00;102402.28;5049695;28;20047;-76
2022/03/02 04:40:41;;;;;;;76.03;31.42;;;;;;;-1.83;100.00;102398.44;5049779;28;20082;-76
2022/03/02 04:43:07;;;;;;;85.18;33.75;;;;;;;-1.93;100.00;102393.44;5049932;28;20033;-76
2022/03/02 04:45:32;;;;;;;87.10;31.30;;;;;;;-2.02;100.00;102396.31;5035489;28;20040;-75
2022/03/02 04:47:59;;;;;;;71.85;31.08;;;;;;;-2.16;100.00;102375.72;5037012;28;20032;-77
2022/03/02 04:50:25;;;;;;;82.60;32.95;;;;;;;-2.13;100.00;102386.13;5036421;28;20056;-76
2022/03/02 04:52:52;;;;;;;75.28;30.52;;;;;;;-2.22;100.00;102381.16;5036986;28;20041;-74
2022/03/02 04:55:18;;;;;;;80.35;32.63;;;;;;;-2.22;100.00;102381.16;5036533;28;20540;-76
2022/03/02 04:57:46;;;;;;;74.90;30.90;;;;;;;-2.30;100.00;102383.09;5036488;28;20041;-77
2022/03/02 05:00:27;;;;;;;81.60;32.25;;;;;;;-2.35;100.00;102375.34;5052872;28;20029;-75
2022/03/02 05:02:54;;;;;;;94.00;33.63;;;;;;;-2.33;100.00;102377.94;5036736;28;20459;-76
2022/03/02 05:05:21;;;;;;;96.10;35.92;;;;;;;-2.34;100.00;102365.78;5052520;28;20058;-75
2022/03/02 05:07:47;;;;;;;79.55;32.70;;;;;;;-2.44;100.00;102375.59;5052113;28;20041;-76
2022/03/02 05:10:15;;;;;;;105.20;34.30;;;;;;;-2.55;100.00;102378.50;5035376;28;20063;-76
2022/03/02 05:12:41;;;;;;;74.55;29.67;;;;;;;-2.63;100.00;102380.41;5053112;28;20060;-76
2022/03/02 05:15:08;;;;;;;77.72;29.85;;;;;;;-2.76;100.00;102368.56;5035679;28;20499;-76
2022/03/02 05:17:35;;;;;;;88.25;32.58;;;;;;;-2.67;100.00;102381.41;5035191;28;20139;-75
2022/03/02 05:20:00;;;;;;;80.53;32.47;;;;;;;-2.69;100.00;102375.34;5052165;28;20479;-75
2022/03/02 05:22:26;;;;;;;78.82;31.15;;;;;;;-2.75;100.00;102372.88;5035964;28;20115;-76
2022/03/02 05:24:51;;;;;;;99.28;35.60;;;;;;;-2.76;100.00;102373.78;5052725;28;20064;-76
2022/03/02 05:27:17;;;;;;;84.28;32.38;;;;;;;-2.74;100.00;102373.72;5036074;28;20043;-76
2022/03/02 05:29:42;;;;;;;84.22;34.53;;;;;;;-2.65;100.00;102387.44;5053636;28;20044;-75
2022/03/02 05:32:09;;;;;;;98.78;36.22;;;;;;;-2.64;100.00;102385.72;5035925;28;20469;-75
2022/03/02 05:34:35;;;;;;;104.82;36.70;;;;;;;-2.61;100.00;102391.72;5035727;28;20482;-75
2022/03/02 05:37:00;;;;;;;73.82;31.58;;;;;;;-2.76;100.00;102379.03;5035624;28;20136;-76
2022/03/02 05:39:26;;;;;;;81.97;31.38;;;;;;;-2.76;100.00;102392.09;5052491;28;20039;-76
2022/03/02 05:41:52;;;;;;;;;;;;;;;-2.73;100.00;102397.25;5036102;28;20033;-75
2022/03/02 05:44:18;;;;;;;81.03;30.05;;;;;;;-2.87;100.00;102386.25;5053864;28;19916;-76
2022/03/02 05:46:43;;;;;;;80.80;31.38;;;;;;;-2.91;100.00;102385.44;5052519;28;20037;-75
2022/03/02 05:49:08;;;;;;;80.07;30.98;;;;;;;-2.85;100.00;102400.16;5053350;28;20051;-76
2022/03/02 05:51:34;;;;;;;83.88;32.28;;;;;;;-2.81;100.00;102407.00;5052572;28;20044;-75
2022/03/02 05:54:00;;;;;;;78.72;31.60;;;;;;;-2.87;100.00;102408.03;5035792;28;20029;-77
2022/03/02 05:56:26;;;;;;;93.57;34.17;;;;;;;-2.90;100.00;102408.09;5035309;28;20128;-77
2022/03/02 05:58:52;;;;;;;84.13;31.90;;;;;;;-2.85;100.00;102418.44;5035521;28;20523;-75
2022/03/02 06:01:18;;;;;;;85.13;33.03;;;;;;;-2.84;100.00;102412.31;5035415;28;20048;-75
2022/03/02 06:03:44;;;;;;;93.68;35.50;;;;;;;-2.81;100.00;102422.69;5051911;28;20047;-75
2022/03/02 06:06:13;;;;;;;91.05;36.17;;;;;;;-2.78;100.00;102430.47;5053312;28;20025;-75
2022/03/02 06:08:38;;;;;;;114.28;41.47;;;;;;;-2.79;100.00;102426.13;5045404;28;20110;-76
2022/03/02 06:11:05;;;;;;;95.25;39.92;;;;;;;-2.72;100.00;102435.53;5050998;28;20049;-75
2022/03/02 06:13:30;;;;;;;111.80;42.50;;;;;;;-2.67;100.00;102441.56;5052136;28;20055;-76
2022/03/02 06:16:00;;;;;;;95.80;40.45;;;;;;;-2.68;100.00;102424.13;5035580;28;20043;-75
2022/03/02 06:18:26;;;;;;;102.07;40.80;;;;;;;-2.49;100.00;102444.63;5035047;28;20041;-77
2022/03/02 06:20:52;;;;;;;119.00;42.42;;;;;;;-2.48;100.00;102447.22;5035153;28;20413;-75
2022/03/02 06:23:21;;;;;;;111.28;39.47;;;;;;;-2.47;100.00;102446.28;5034901;28;20107;-76
2022/03/02 06:25:47;;;;;;;98.97;35.38;;;;;;;-2.56;100.00;102447.38;5051925;28;20025;-76
2022/03/02 06:28:14;;;;;;;104.43;39.78;;;;;;;-2.51;100.00;102449.03;5051827;28;20040;-76
2022/03/02 06:30:40;;;;;;;100.88;38.70;;;;;;;-2.63;100.00;102427.50;5035088;28;20390;-75
2022/03/02 06:33:05;;;;;;;112.72;41.47;;;;;;;-2.49;100.00;102442.00;5051593;28;20041;-76
2022/03/02 06:35:30;;;;;;;121.78;42.67;;;;;;;-2.46;100.00;102440.19;5034993;28;20037;-76
2022/03/02 06:37:56;;;;;;;104.70;42.28;;;;;;;-2.44;100.00;102432.28;5051320;28;20025;-75
2022/03/02 06:40:22;;;;;;;100.32;36.60;;;;;;;-2.53;100.00;102415.03;5052801;28;20718;-75
2022/03/02 06:42:53;;;;;;;100.30;37.70;;;;;;;-2.43;100.00;102445.34;5051627;28;20041;-75
2022/03/02 06:45:26;;;;;;;97.88;36.55;;;;;;;-2.51;100.00;102434.19;5052021;28;20060;-75
2022/03/02 06:47:58;;;;;;;109.72;40.53;;;;;;;-2.45;100.00;102438.44;5050134;28;20033;-76
2022/03/02 06:50:31;;;;;;;92.70;37.70;;;;;;;-2.30;100.00;102448.50;5033121;28;20071;-77
2022/03/02 06:53:01;;;;;;;90.80;36.90;;;;;;;-2.29;100.00;102449.38;5051808;28;20024;-76
2022/03/02 06:55:29;;;;;;;99.47;37.35;;;;;;;-2.24;100.00;102445.72;5051093;28;20037;-76
2022/03/02 06:57:57;;;;;;;86.63;35.33;;;;;;;-2.14;100.00;102449.81;5050960;28;20470;-76
2022/03/02 07:00:24;;;;;;;99.40;36.38;;;;;;;-2.10;100.00;102434.06;5017862;28;20029;-76
2022/03/02 07:02:51;;;;;;;95.20;36.03;;;;;;;-1.82;100.00;102466.47;5051012;28;20025;-76
2022/03/02 07:05:17;;;;;;;88.13;33.70;;;;;;;-1.40;100.00;102471.44;5034430;28;20029;-76
2022/03/02 07:07:44;;;;;;;91.65;36.38;;;;;;;-1.11;100.00;102459.25;5050598;28;20029;-76
2022/03/02 07:10:10;;;;;;;92.95;35.30;;;;;;;-0.79;100.00;102471.41;5050993;28;20063;-75
2022/03/02 07:12:37;;;;;;;103.15;42.08;;;;;;;-0.54;100.00;102463.63;5051103;28;20031;-76
2022/03/02 07:15:04;;;;;;;92.20;37.40;;;;;;;-0.56;100.00;102454.94;5050990;28;20075;-76
2022/03/02 07:17:32;;;;;;;85.97;36.97;;;;;;;-0.20;100.00;102452.03;5051248;28;20472;-76
2022/03/02 07:20:06;;;;;;;94.57;41.55;;;;;;;0.30;100.00;102457.28;5050552;28;20033;-76
2022/03/02 07:22:35;;;;;;;90.80;36.67;;;;;;;0.60;100.00;102457.09;5034641;28;20497;-75
2022/03/02 07:25:14;;;;;;;92.43;36.67;;;;;;;0.92;100.00;102468.22;5050768;28;20033;-76
2022/03/02 07:27:40;;;;;;;79.88;35.28;;;;;;;1.16;100.00;102459.34;5052195;28;20109;-76
2022/03/02 07:30:08;;;;;;;74.78;33.58;;;;;;;1.41;100.00;102474.19;5050540;28;20024;-76
2022/03/02 07:32:36;;;;;;;82.90;34.85;;;;;;;1.69;100.00;102490.59;5051240;28;20045;-75
2022/03/02 07:35:05;;;;;;;74.95;33.38;;;;;;;1.84;100.00;102482.97;5051149;28;20029;-75
2022/03/02 07:37:32;;;;;;;86.85;34.75;;;;;;;2.10;100.00;102481.88;5051796;28;20036;-75
2022/03/02 07:39:59;;;;;;;76.10;32.97;;;;;;;2.04;100.00;102463.72;5051109;28;20028;-76
2022/03/02 07:42:24;;;;;;;79.47;34.25;;;;;;;2.35;100.00;102441.31;5051382;28;20033;-76
2022/03/02 07:44:51;;;;;;;70.50;32.20;;;;;;;2.75;100.00;102445.63;5051327;28;20025;-77
2022/03/02 07:47:18;;;;;;;68.97;32.65;;;;;;;3.06;100.00;102433.66;5051885;28;20110;-75
2022/03/02 07:49:45;;;;;;;77.60;32.45;;;;;;;3.42;100.00;102409.91;5052035;28;20108;-76
2022/03/02 07:52:13;;;;;;;69.50;30.98;;;;;;;3.63;100.00;102375.41;5051403;28;20090;-76
2022/03/02 07:54:40;;;;;;;75.13;32.03;;;;;;;4.01;100.00;102376.13;5052780;28;20090;-76
2022/03/02 07:57:14;;;;;;;68.13;31.38;;;;;;;4.13;100.00;102338.47;5051251;28;20132;-76
2022/03/02 07:59:42;;;;;;;71.70;29.33;;;;;;;3.97;100.00;102300.56;5051427;28;20115;-76
2022/03/02 08:02:12;;;;;;;62.10;29.63;;;;;;;4.65;100.00;102276.56;5051317;28;20108;-76
2022/03/02 08:04:39;;;;;;;63.08;30.17;;;;;;;5.14;99.03;102257.00;5050987;28;20036;-76
2022/03/02 08:07:05;;;;;;;61.50;28.90;;;;;;;5.41;94.59;102214.78;5050993;28;20029;-76
2022/03/02 08:09:31;;;;;;;54.95;27.30;;;;;;;5.13;90.76;102154.69;5050808;28;20071;-75
2022/03/02 08:11:59;;;;;;;61.97;29.30;;;;;;;4.91;88.81;102123.38;5051524;28;20120;-75
2022/03/02 08:14:25;;;;;;;62.15;29.42;;;;;;;5.73;87.44;102143.91;5051795;28;20506;-75
2022/03/02 08:16:52;;;;;;;61.65;28.83;;;;;;;6.19;84.58;102087.94;5050836;28;20025;-76
2022/03/02 08:19:19;;;;;;;63.67;29.30;;;;;;;6.13;82.77;102045.91;5051819;28;20037;-76
2022/03/02 08:21:50;;;;;;;62.05;29.58;;;;;;;6.26;81.12;102030.06;5054629;28;20119;-75
2022/03/02 08:24:17;;;;;;;60.38;29.23;;;;;;;6.60;78.15;101967.56;5054597;28;20104;-75
2022/03/02 08:26:48;;;;;;;52.60;27.13;;;;;;;7.10;77.54;101988.88;5054645;28;20024;-76
2022/03/02 08:29:14;;;;;;;58.28;27.55;;;;;;;7.71;74.98;101939.22;5037518;28;20383;-76
2022/03/02 08:31:41;;;;;;;52.10;27.55;;;;;;;8.14;73.08;101901.38;5054422;28;20029;-76
2022/03/02 08:34:07;;;;;;;51.03;25.88;;;;;;;8.27;71.34;101841.91;5054426;28;20032;-76
2022/03/02 08:36:34;;;;;;;52.92;25.90;;;;;;;8.68;70.96;101875.06;5055120;28;20394;-76
2022/03/02 08:39:07;;;;;;;46.45;25.58;;;;;;;9.19;68.75;101818.50;5053569;28;20040;-76
2022/03/02 08:41:33;;;;;;;50.63;26.45;;;;;;;9.56;66.74;101767.47;5053478;28;20041;-76
2022/03/02 08:43:59;;;;;;;48.53;26.42;;;;;;;9.47;64.46;101662.44;5053245;28;20036;-75
2022/03/02 08:46:25;;;;;;;48.03;25.42;;;;;;;7.51;66.65;101624.44;5057064;28;20025;-76
2022/03/02 08:48:53;;;;;;;50.90;26.67;;;;;;;8.38;66.91;101764.72;5020676;28;20063;-76
2022/03/02 08:51:23;;;;;;;49.03;24.77;;;;;;;8.87;65.38;101736.78;5042766;28;20025;-76
2022/03/02 08:53:50;;;;;;;51.60;25.08;;;;;;;8.19;67.81;101818.53;5070547;28;20028;-76
2022/03/02 08:56:16;;;;;;;47.00;27.42;;;;;;;8.99;66.31;101817.47;5054612;28;20025;-75
2022/03/02 08:58:42;;;;;;;50.42;25.17;;;;;;;9.86;64.57;101771.97;5019791;28;20032;-75
2022/03/02 09:01:11;;;;;;;49.72;25.58;;;;;;;10.19;62.83;101696.13;5054583;28;20086;-75
2022/03/02 09:03:42;;;;;;;46.97;25.98;;;;;;;9.28;62.21;101580.59;5059961;28;20406;-75
2022/03/02 09:06:07;;;;;;;43.13;24.27;;;;;;;10.20;62.29;101710.31;5070154;28;20021;-76
2022/03/02 09:08:33;;;;;;;46.13;24.70;;;;;;;10.02;61.03;101598.06;5069282;28;20810;-76
2022/03/02 09:11:00;;;;;;;48.53;25.13;;;;;;;10.84;60.10;101631.53;5052811;28;20672;-75
2022/03/02 09:13:25;;;;;;;48.60;25.73;;;;;;;10.56;59.29;101560.19;5054130;28;20095;-76
2022/03/02 09:15:51;;;;;;;55.25;26.15;;;;;;;9.33;60.50;101501.06;5036256;28;20036;-75
2022/03/02 09:18:17;;;;;;;40.08;23.23;;;;;;;9.81;60.53;101619.47;5036085;28;20390;-76
2022/03/02 09:20:43;;;;;;;42.97;22.10;;;;;;;10.41;60.15;101668.38;5019534;28;20051;-75
2022/03/02 09:23:09;;;;;;;41.78;22.05;;;;;;;10.86;58.60;101608.19;5035917;28;20057;-75
2022/03/02 09:25:38;;;;;;;44.35;24.35;;;;;;;11.13;57.36;101529.94;5053548;28;20033;-76
2022/03/02 09:28:05;;;;;;;47.80;26.55;;;;;;;11.55;56.91;101565.06;5035619;28;20398;-76
2022/03/02 09:30:30;;;;;;;46.80;24.85;;;;;;;11.34;56.70;101506.47;5051671;28;20652;-75
2022/03/02 09:32:56;;;;;;;45.77;26.17;;;;;;;11.23;57.08;101520.03;5052018;28;20043;-75
2022/03/02 09:35:22;;;;;;;44.50;25.17;;;;;;;11.05;57.74;101560.06;5053509;28;20326;-76
2022/03/02 09:37:53;;;;;;;45.87;25.37;;;;;;;10.30;58.60;101543.91;5051975;28;20565;-76
2022/03/02 09:40:30;;;;;;;45.17;23.67;;;;;;;11.10;58.46;101632.63;5051849;28;20287;-75
2022/03/02 09:42:59;;;;;;;44.17;24.08;;;;;;;10.97;57.56;101531.41;5018747;28;20037;-75
2022/03/02 09:45:26;;;;;;;47.95;25.67;;;;;;;10.88;57.44;101516.25;5035259;28;20024;-76
2022/03/02 09:47:56;;;;;;;44.53;23.45;;;;;;;10.97;57.52;101525.22;5051369;28;20033;-75
2022/03/02 09:50:23;;;;;;;48.75;23.85;;;;;;;10.33;57.86;101463.53;5051563;28;20180;-75
2022/03/02 09:52:52;;;;;;;44.85;24.08;;;;;;;11.20;57.15;101553.25;5035237;28;20111;-76
2022/03/02 09:55:22;;;;;;;44.03;23.67;;;;;;;11.27;57.07;101528.63;5052775;28;20079;-75
2022/03/02 09:57:53;;;;;;;41.15;22.48;;;;;;;11.44;56.56;101517.13;5052962;28;20040;-76
2022/03/02 10:00:20;;;;;;;41.35;24.88;;;;;;;11.38;56.59;101493.69;5074883;23;20071;-72
2022/03/02 10:02:49;;;;;;;42.35;23.35;;;;;;;11.28;56.46;101499.03;5090936;28;20110;-72
2022/03/02 10:05:31;;;;;;;47.40;23.70;;;;;;;11.07;56.63;101469.06;5074501;28;20040;-72
2022/03/02 10:07:59;;;;;;;44.13;24.08;;;;;;;11.03;56.73;101471.19;5058151;28;20476;-72
2022/03/02 10:10:28;;;;;;;47.58;25.42;;;;;;;10.96;56.60;101449.56;5092411;28;20035;-72
2022/03/02 10:12:57;;;;;;;42.15;24.48;;;;;;;10.62;56.50;101403.03;5092810;28;20032;-72
2022/03/02 10:15:23;;;;;;;49.92;26.23;;;;;;;10.26;57.24;101418.88;5074436;28;20097;-72
2022/03/02 10:17:51;;;;;;;44.38;22.58;;;;;;;11.23;56.96;101535.25;5092757;28;20119;-72
2022/03/02 10:20:19;;;;;;;47.90;24.60;;;;;;;11.68;55.68;101492.47;5092046;28;20028;-72
2022/03/02 10:23:06;;;;;;;45.65;23.60;;;;;;;11.37;54.57;101348.44;5074570;28;20492;-72
2022/03/02 10:25:43;;;;;;;47.50;24.70;;;;;;;11.30;55.02;101358.06;5074228;28;20529;-72
2022/03/02 10:28:14;;;;;;;43.75;22.13;;;;;;;11.64;54.95;101426.91;5091273;28;20115;-72
2022/03/02 10:30:41;;;;;;;37.38;22.08;;;;;;;11.76;53.63;101337.41;5073837;28;20051;-72
2022/03/02 10:33:25;;;;;;;42.80;23.90;;;;;;;11.90;52.98;101300.41;5057491;28;20488;-72
2022/03/02 10:36:10;;;;;;;53.83;22.80;;;;;;;11.90;52.89;101297.75;5073918;28;20119;-72
2022/03/02 10:38:38;;;;;;;42.85;23.58;;;;;;;12.18;53.48;101373.34;5092185;28;20020;-72
2022/03/02 10:41:07;;;;;;;38.00;21.40;;;;;;;11.98;54.11;101412.84;5073769;28;20477;-73
2022/03/02 10:43:47;;;;;;;42.45;22.63;;;;;;;11.44;53.15;101248.91;5091643;28;20032;-73
2022/03/02 10:46:20;;;;;;;39.47;21.95;;;;;;;12.09;53.58;101406.41;5074066;28;20069;-72
2022/03/02 10:48:59;;;;;;;41.40;23.10;;;;;;;12.40;52.74;101388.03;5073802;28;20032;-72
2022/03/02 10:51:26;;;;;;;38.72;22.77;;;;;;;12.74;52.08;101355.06;5073676;28;20040;-72
2022/03/02 10:53:52;;;;;;;35.35;21.75;;;;;;;12.74;50.56;101237.19;5092069;28;20084;-72
2022/03/02 10:56:20;;;;;;;44.45;23.40;;;;;;;12.12;51.38;101163.38;5091711;28;20032;-72
2022/03/02 10:58:49;;;;;;;41.67;22.95;;;;;;;12.40;51.17;101230.06;5091566;28;20503;-72
2022/03/02 11:01:17;;;;;;;42.70;24.63;;;;;;;12.48;51.32;101248.84;5091693;28;20035;-72
2022/03/02 11:03:44;;;;;;;40.13;23.80;;;;;;;12.18;52.62;101317.97;5056892;28;20518;-72
2022/03/02 11:06:11;;;;;;;41.35;23.70;;;;;;;12.29;52.02;101283.88;5091623;28;20042;-72